createdAt,value
2022-11-05T00:03:10.221Z,4
2022-11-05T00:13:16.976Z,5
2022-11-05T00:23:22.083Z,5
2022-11-05T00:33:27.251Z,4
2022-11-05T00:43:31.930Z,6
2022-11-05T00:53:38.509Z,5
2022-11-05T01:03:52.170Z,4
2022-11-05T01:14:01.345Z,6
2022-11-05T01:24:02.806Z,3
2022-11-05T01:34:08.904Z,6
2022-11-05T01:44:13.603Z,4
2022-11-05T01:54:21.191Z,6
2022-11-05T02:04:26.108Z,5
2022-11-05T02:14:32.190Z,4
2022-11-05T02:24:37.152Z,6
2022-11-05T02:34:42.895Z,5
2022-11-05T02:44:46.179Z,5
2022-11-05T02:54:52.076Z,7
2022-11-05T03:04:58.570Z,5
2022-11-05T03:15:02.935Z,3
2022-11-05T03:25:07.713Z,3
2022-11-05T03:35:15.204Z,5
2022-11-05T03:45:21.032Z,5
2022-11-05T03:55:27.523Z,5
2022-11-05T04:05:32.312Z,4
2022-11-05T04:15:38.457Z,3
2022-11-05T04:25:45.522Z,6
2022-11-05T04:35:53.375Z,8
2022-11-05T04:45:59.811Z,6
2022-11-05T04:56:04.152Z,5
2022-11-05T05:06:08.973Z,4
2022-11-05T05:16:14.705Z,4
2022-11-05T05:26:19.749Z,5
2022-11-05T05:36:25.114Z,4
2022-11-05T05:46:29.243Z,5
2022-11-05T05:56:33.669Z,5
2022-11-05T06:06:39.079Z,9
2022-11-05T06:16:43.125Z,7
2022-11-05T06:26:49.667Z,5
2022-11-05T06:36:56.893Z,6
2022-11-05T06:47:04.107Z,5
2022-11-05T06:57:10.009Z,7
2022-11-05T07:07:19.470Z,6
2022-11-05T07:17:19.366Z,7
2022-11-05T07:27:25.560Z,7
2022-11-05T07:37:30.607Z,5
2022-11-05T07:47:35.514Z,12
2022-11-05T07:57:40.979Z,6
2022-11-05T08:07:47.959Z,5
2022-11-05T08:18:00.757Z,6
2022-11-05T08:27:57.420Z,5
2022-11-05T08:38:04.898Z,5
2022-11-05T08:48:09.765Z,5
2022-11-05T08:58:15.044Z,4
2022-11-05T09:08:26.056Z,4
2022-11-05T09:18:29.111Z,5
2022-11-05T09:28:34.023Z,8
2022-11-05T09:38:49.118Z,6
2022-11-05T09:48:47.094Z,5
2022-11-05T09:58:58.573Z,6
2022-11-05T10:08:57.077Z,7
2022-11-05T10:19:03.808Z,11
2022-11-05T10:29:08.091Z,11
2022-11-05T10:39:13.024Z,4
2022-11-05T10:49:25.676Z,4
2022-11-05T10:59:23.182Z,6
2022-11-05T11:09:27.593Z,14
2022-11-05T11:19:33.251Z,15
2022-11-05T11:29:40.498Z,5
2022-11-05T11:39:44.872Z,28
2022-11-05T11:49:51.743Z,15
2022-11-05T12:00:24.916Z,7
2022-11-05T12:10:19.810Z,15
2022-11-05T12:20:25.214Z,6
2022-11-05T12:30:33.494Z,4
2022-11-05T12:40:39.433Z,3
2022-11-05T12:50:44.560Z,4
2022-11-05T13:00:50.389Z,15
2022-11-05T13:10:53.476Z,12
2022-11-05T13:21:05.079Z,32
2022-11-05T13:31:04.060Z,30
2022-11-05T13:41:10.002Z,21
2022-11-05T13:51:15.552Z,27
2022-11-05T14:01:21.431Z,27
2022-11-05T14:11:28.613Z,17
2022-11-05T14:21:35.138Z,19
2022-11-05T14:32:09.884Z,20
2022-11-05T14:42:01.843Z,6
2022-11-05T14:52:09.029Z,21
2022-11-05T15:02:16.089Z,25
2022-11-05T15:12:20.934Z,17
2022-11-05T15:22:26.556Z,5
2022-11-05T15:32:38.919Z,5
2022-11-05T15:42:38.388Z,9
2022-11-05T15:52:45.179Z,9
2022-11-05T16:03:29.861Z,6
2022-11-05T16:13:35.452Z,5
2022-11-05T16:23:40.366Z,7
2022-11-05T16:33:44.586Z,7
2022-11-05T16:43:50.535Z,15
2022-11-05T16:53:54.918Z,6
2022-11-05T17:04:01.375Z,6
2022-11-05T17:14:06.861Z,4
2022-11-05T17:24:13.546Z,5
2022-11-05T17:34:18.634Z,6
2022-11-05T17:44:25.233Z,6
2022-11-05T17:54:31.656Z,7
2022-11-05T18:04:43.849Z,7
2022-11-05T18:14:42.273Z,6
2022-11-05T18:24:47.206Z,5
2022-11-05T18:34:53.425Z,4
2022-11-05T18:44:58.978Z,4
2022-11-05T18:55:06.923Z,5
2022-11-05T19:05:31.970Z,6
2022-11-05T19:15:32.688Z,7
2022-11-05T19:25:31.764Z,6
2022-11-05T19:35:41.701Z,11
2022-11-05T19:46:26.393Z,13
2022-11-05T19:56:19.308Z,10
2022-11-05T20:06:25.866Z,9
2022-11-05T20:16:31.406Z,14
2022-11-05T20:26:37.782Z,13
2022-11-05T20:36:43.868Z,13
2022-11-05T20:46:49.731Z,11
2022-11-05T20:56:55.255Z,7
2022-11-05T21:07:01.781Z,7
2022-11-05T21:17:06.306Z,12
2022-11-05T21:27:11.617Z,9
2022-11-05T21:37:16.065Z,8
2022-11-05T21:47:23.750Z,14
2022-11-05T21:57:28.037Z,9
2022-11-05T22:07:34.612Z,13
2022-11-05T22:17:47.256Z,10
2022-11-05T22:27:45.004Z,19
2022-11-05T22:37:50.935Z,16
2022-11-05T22:47:55.825Z,9
2022-11-05T22:58:01.518Z,8
2022-11-05T23:08:15.462Z,8
2022-11-05T23:18:15.640Z,10
2022-11-05T23:28:21.889Z,7
2022-11-05T23:38:28.534Z,8
2022-11-05T23:48:47.432Z,10
2022-11-05T23:58:41.327Z,11
